createdAt,value
2024-04-08T00:00:28.781Z,59.58
2024-04-08T00:01:28.792Z,63.92
2024-04-08T00:02:28.838Z,56.91
2024-04-08T00:03:28.771Z,65.40
2024-04-08T00:04:28.763Z,59.71
2024-04-08T00:05:28.764Z,58.04
2024-04-08T00:06:28.726Z,63.03
2024-04-08T00:07:29.683Z,61.76
2024-04-08T00:08:28.734Z,49.51
2024-04-08T00:09:29.210Z,63.51
2024-04-08T00:10:28.694Z,67.28
2024-04-08T00:11:28.743Z,56.60
2024-04-08T00:12:28.676Z,59.93
2024-04-08T00:13:28.659Z,61.09
2024-04-08T00:14:28.659Z,61.03
2024-04-08T00:15:28.626Z,61.46
2024-04-08T00:16:28.641Z,65.72
2024-04-08T00:17:28.650Z,58.21
2024-04-08T00:18:28.623Z,64.55
2024-04-08T00:19:28.581Z,61.01
2024-04-08T00:20:28.611Z,64.48
2024-04-08T00:21:28.574Z,58.06
2024-04-08T00:22:28.541Z,62.12
2024-04-08T00:23:28.582Z,60.92
2024-04-08T00:24:28.526Z,58.06
2024-04-08T00:25:28.520Z,59.67
2024-04-08T00:26:28.524Z,67.27
2024-04-08T00:27:28.490Z,65.55
2024-04-08T00:28:28.521Z,52.31
2024-04-08T00:29:28.544Z,65.19
2024-04-08T00:30:28.450Z,64.13
2024-04-08T00:31:28.450Z,58.75
2024-04-08T00:32:28.526Z,70.81
2024-04-08T00:33:28.450Z,65.35
2024-04-08T00:34:28.434Z,67.37
2024-04-08T00:35:28.425Z,62.44
2024-04-08T00:36:28.396Z,67.00
2024-04-08T00:37:28.383Z,59.41
2024-04-08T00:38:28.455Z,65.93
2024-04-08T00:39:28.388Z,56.30
2024-04-08T00:40:28.356Z,66.20
2024-04-08T00:41:28.379Z,62.93
2024-04-08T00:42:28.356Z,67.86
2024-04-08T00:43:28.321Z,61.74
2024-04-08T00:44:28.366Z,65.65
2024-04-08T00:45:28.307Z,59.06
2024-04-08T00:46:28.292Z,50.53
2024-04-08T00:47:28.358Z,67.86
2024-04-08T00:48:28.288Z,58.04
2024-04-08T00:49:28.265Z,61.53
2024-04-08T00:50:28.274Z,67.97
2024-04-08T00:51:28.243Z,58.02
2024-04-08T00:52:28.384Z,51.49
2024-04-08T00:53:28.250Z,56.63
2024-04-08T00:54:28.199Z,67.77
2024-04-08T00:55:28.228Z,65.24
2024-04-08T00:56:28.204Z,53.99
2024-04-08T00:57:28.182Z,58.09
2024-04-08T00:58:28.158Z,60.02
2024-04-08T00:59:28.166Z,64.51
2024-04-08T01:00:28.155Z,62.10
2024-04-08T01:01:28.143Z,60.82
2024-04-08T01:02:28.136Z,65.56
2024-04-08T01:03:29.096Z,64.74
2024-04-08T01:04:28.087Z,65.44
2024-04-08T01:05:28.088Z,49.76
2024-04-08T01:06:28.067Z,54.63
2024-04-08T01:07:28.070Z,63.23
2024-04-08T01:08:28.106Z,54.81
2024-04-08T01:09:28.038Z,61.53
2024-04-08T01:10:28.026Z,57.54
2024-04-08T01:11:28.048Z,62.11
2024-04-08T01:12:28.212Z,60.74
2024-04-08T01:13:29.050Z,61.26
2024-04-08T01:14:28.018Z,50.22
2024-04-08T01:15:27.966Z,65.16
2024-04-08T01:16:28.224Z,61.72
2024-04-08T01:17:27.992Z,57.28
2024-04-08T01:18:27.935Z,60.16
2024-04-08T01:19:27.921Z,57.49
2024-04-08T01:20:27.924Z,56.71
2024-04-08T01:21:27.908Z,59.70
2024-04-08T01:22:27.919Z,54.51
2024-04-08T01:23:27.875Z,61.95
2024-04-08T01:24:27.853Z,59.82
2024-04-08T01:25:27.844Z,61.91
2024-04-08T01:26:27.864Z,65.35
2024-04-08T01:27:27.874Z,61.51
2024-04-08T01:28:27.808Z,58.79
2024-04-08T01:29:27.797Z,61.56
2024-04-08T01:30:27.822Z,61.73
2024-04-08T01:31:27.786Z,63.01
2024-04-08T01:32:27.771Z,71.06
2024-04-08T01:33:27.776Z,67.42
2024-04-08T01:34:27.746Z,62.56
2024-04-08T01:35:27.766Z,65.05
2024-04-08T01:36:27.738Z,62.32
2024-04-08T01:37:27.748Z,68.53
2024-04-08T01:38:27.731Z,54.73
2024-04-08T01:39:27.703Z,48.83
2024-04-08T01:40:27.686Z,66.50
2024-04-08T01:41:27.721Z,54.73
2024-04-08T01:42:27.676Z,67.12
2024-04-08T01:43:27.640Z,69.42
2024-04-08T01:44:27.659Z,53.14
2024-04-08T01:45:27.638Z,67.07
2024-04-08T01:46:27.643Z,66.29
2024-04-08T01:47:27.683Z,53.03
2024-04-08T01:48:27.579Z,57.63
2024-04-08T01:49:28.610Z,52.06
2024-04-08T01:50:27.611Z,66.68
2024-04-08T01:51:27.552Z,51.79
2024-04-08T01:52:27.613Z,62.13
2024-04-08T01:53:27.603Z,60.28
2024-04-08T01:54:27.550Z,53.11
2024-04-08T01:55:27.522Z,67.41
2024-04-08T01:56:27.595Z,63.53
2024-04-08T01:57:27.488Z,67.19
2024-04-08T01:58:27.496Z,58.46
2024-04-08T01:59:27.532Z,49.32
2024-04-08T02:00:27.478Z,66.87
2024-04-08T02:01:27.452Z,65.65
2024-04-08T02:02:27.507Z,62.24
2024-04-08T02:03:27.444Z,64.81
2024-04-08T02:04:27.435Z,62.06
2024-04-08T02:05:27.426Z,56.91
2024-04-08T02:06:27.390Z,64.57
2024-04-08T02:07:27.414Z,60.98
2024-04-08T02:08:27.381Z,63.77
2024-04-08T02:09:27.393Z,67.96
2024-04-08T02:10:28.211Z,58.23
2024-04-08T02:11:27.358Z,62.10
2024-04-08T02:12:27.397Z,65.17
2024-04-08T02:13:27.315Z,57.07
2024-04-08T02:14:27.309Z,65.62
2024-04-08T02:15:27.297Z,57.39
2024-04-08T02:16:27.285Z,63.72
2024-04-08T02:17:27.306Z,65.31
2024-04-08T02:18:28.185Z,55.05
2024-04-08T02:19:27.246Z,56.99
2024-04-08T02:20:27.228Z,60.57
2024-04-08T02:21:27.236Z,65.16
2024-04-08T02:22:27.216Z,56.23
2024-04-08T02:23:27.241Z,62.70
2024-04-08T02:24:27.241Z,64.85
2024-04-08T02:25:27.205Z,59.63
2024-04-08T02:26:27.168Z,60.40
2024-04-08T02:27:27.153Z,63.60
2024-04-08T02:28:27.165Z,64.52
2024-04-08T02:29:27.184Z,67.93
2024-04-08T02:30:27.137Z,66.16
2024-04-08T02:31:27.140Z,62.84
2024-04-08T02:32:27.147Z,65.42
2024-04-08T02:33:27.108Z,67.11
2024-04-08T02:34:27.113Z,55.86
2024-04-08T02:35:27.081Z,67.27
2024-04-08T02:36:27.058Z,68.90
2024-04-08T02:37:27.056Z,63.33
2024-04-08T02:38:27.048Z,66.94
2024-04-08T02:39:27.052Z,64.53
2024-04-08T02:40:27.033Z,63.12
2024-04-08T02:41:27.018Z,64.58
2024-04-08T02:42:27.001Z,66.08
2024-04-08T02:43:27.078Z,70.59
2024-04-08T02:44:26.998Z,57.68
2024-04-08T02:45:26.973Z,67.80
2024-04-08T02:46:26.958Z,70.27
2024-04-08T02:47:26.983Z,66.01
2024-04-08T02:48:26.937Z,67.15
2024-04-08T02:49:26.946Z,66.46
2024-04-08T02:50:26.957Z,62.41
2024-04-08T02:51:26.936Z,69.69
2024-04-08T02:52:26.882Z,60.43
2024-04-08T02:53:26.889Z,66.25
2024-04-08T02:54:26.869Z,67.92
2024-04-08T02:55:26.864Z,65.83
2024-04-08T02:56:26.870Z,67.01
2024-04-08T02:57:26.856Z,64.52
2024-04-08T02:58:26.827Z,65.69
2024-04-08T02:59:26.863Z,68.08
2024-04-08T03:00:26.799Z,68.23
2024-04-08T03:01:26.870Z,66.90
2024-04-08T03:02:26.774Z,62.19
2024-04-08T03:03:26.777Z,69.21
2024-04-08T03:04:26.764Z,67.13
2024-04-08T03:05:26.740Z,68.27
2024-04-08T03:06:26.776Z,69.62
2024-04-08T03:07:26.713Z,68.92
2024-04-08T03:08:26.755Z,71.86
2024-04-08T03:09:26.759Z,71.03
2024-04-08T03:10:26.715Z,69.60
2024-04-08T03:11:26.741Z,71.79
2024-04-08T03:12:26.781Z,67.83
2024-04-08T03:13:26.667Z,66.98
2024-04-08T03:14:26.671Z,67.30
2024-04-08T03:15:26.637Z,70.69
2024-04-08T03:16:26.630Z,68.79
2024-04-08T03:17:27.182Z,70.40
2024-04-08T03:18:26.604Z,68.45
2024-04-08T03:19:26.614Z,71.49
2024-04-08T03:20:26.594Z,71.53
2024-04-08T03:21:26.573Z,69.47
2024-04-08T03:22:26.568Z,73.91
2024-04-08T03:23:26.583Z,68.97
2024-04-08T03:24:26.532Z,71.60
2024-04-08T03:25:26.550Z,71.07
2024-04-08T03:26:26.504Z,71.49
2024-04-08T03:27:26.516Z,70.22
2024-04-08T03:28:26.500Z,69.44
2024-04-08T03:29:26.523Z,68.74
2024-04-08T03:30:26.540Z,70.52
2024-04-08T03:31:26.466Z,70.43
2024-04-08T03:32:26.482Z,71.26
2024-04-08T03:33:26.452Z,73.11
2024-04-08T03:34:26.434Z,71.95
2024-04-08T03:35:26.416Z,73.44
2024-04-08T03:36:26.426Z,73.20
2024-04-08T03:37:26.422Z,73.32
2024-04-08T03:38:26.424Z,73.49
2024-04-08T03:39:26.383Z,73.76
2024-04-08T03:40:26.380Z,73.72
2024-04-08T03:41:26.343Z,73.24
2024-04-08T03:42:26.346Z,74.10
2024-04-08T03:43:27.349Z,73.40
2024-04-08T03:44:26.315Z,74.38
2024-04-08T03:45:26.345Z,73.98
2024-04-08T03:46:26.292Z,74.12
2024-04-08T03:47:26.338Z,73.51
2024-04-08T03:48:26.294Z,74.04
2024-04-08T03:49:26.276Z,74.14
2024-04-08T03:50:27.194Z,75.20
2024-04-08T03:51:28.234Z,75.16
2024-04-08T03:52:27.234Z,75.21
2024-04-08T03:53:26.202Z,73.14
2024-04-08T03:54:26.259Z,73.47
2024-04-08T03:55:26.183Z,72.99
2024-04-08T03:56:26.160Z,74.45
2024-04-08T03:57:26.178Z,74.73
2024-04-08T03:58:26.153Z,75.01
2024-04-08T03:59:26.166Z,72.14
2024-04-08T04:00:26.122Z,73.70
2024-04-08T04:01:26.697Z,73.38
2024-04-08T04:02:26.090Z,74.07
2024-04-08T04:03:26.094Z,73.10
2024-04-08T04:04:26.075Z,74.03
2024-04-08T04:05:26.719Z,74.46
2024-04-08T04:06:26.165Z,73.41
2024-04-08T04:07:26.042Z,74.06
2024-04-08T04:08:26.054Z,73.19
2024-04-08T04:09:26.697Z,74.18
2024-04-08T04:10:26.709Z,74.34
2024-04-08T04:11:26.694Z,75.34
2024-04-08T04:12:27.222Z,75.53
2024-04-08T04:13:26.653Z,77.58
2024-04-08T04:14:26.705Z,75.67
2024-04-08T04:15:25.971Z,72.32
2024-04-08T04:16:25.986Z,75.65
2024-04-08T04:17:26.012Z,74.61
2024-04-08T04:18:25.904Z,75.47
2024-04-08T04:19:25.968Z,74.58
2024-04-08T04:20:26.674Z,74.11
2024-04-08T04:21:26.662Z,75.79
2024-04-08T04:22:26.652Z,74.78
2024-04-08T04:23:25.854Z,75.82
2024-04-08T04:24:26.666Z,74.16
2024-04-08T04:25:25.940Z,75.64
2024-04-08T04:26:26.230Z,75.42
2024-04-08T04:27:26.678Z,75.82
2024-04-08T04:28:26.704Z,74.89
2024-04-08T04:29:25.790Z,76.66
2024-04-08T04:30:25.808Z,75.97
2024-04-08T04:31:25.782Z,74.95
2024-04-08T04:32:25.760Z,76.26
2024-04-08T04:33:25.758Z,76.24
2024-04-08T04:34:26.679Z,76.86
2024-04-08T04:35:25.873Z,74.81
2024-04-08T04:36:26.708Z,74.59
2024-04-08T04:37:26.665Z,75.56
2024-04-08T04:38:25.702Z,75.49
2024-04-08T04:39:25.721Z,75.79
2024-04-08T04:40:25.660Z,76.60
2024-04-08T04:41:25.640Z,75.57
2024-04-08T04:42:25.650Z,75.78
2024-04-08T04:43:26.151Z,76.11
2024-04-08T04:44:25.614Z,75.00
2024-04-08T04:45:25.632Z,76.49
2024-04-08T04:46:25.638Z,76.02
2024-04-08T04:47:25.686Z,76.26
2024-04-08T04:48:25.645Z,76.17
2024-04-08T04:49:26.320Z,76.66
2024-04-08T04:50:25.544Z,78.07
2024-04-08T04:51:25.574Z,76.06
2024-04-08T04:52:25.544Z,76.68
2024-04-08T04:53:25.537Z,78.22
2024-04-08T04:54:27.301Z,76.85
2024-04-08T04:55:25.503Z,73.56
2024-04-08T04:56:25.501Z,76.72
2024-04-08T04:57:25.464Z,75.56
2024-04-08T04:58:25.524Z,76.21
2024-04-08T04:59:25.438Z,72.19
2024-04-08T05:00:25.430Z,77.82
2024-04-08T05:01:25.421Z,74.65
2024-04-08T05:02:25.425Z,74.57
2024-04-08T05:03:25.430Z,76.24
2024-04-08T05:04:25.407Z,74.97
2024-04-08T05:05:25.412Z,75.06
2024-04-08T05:06:25.384Z,75.88
2024-04-08T05:07:25.384Z,75.43
2024-04-08T05:08:25.355Z,75.66
2024-04-08T05:09:25.326Z,75.79
2024-04-08T05:10:25.338Z,76.00
2024-04-08T05:11:25.307Z,76.22
2024-04-08T05:12:25.294Z,74.94
2024-04-08T05:13:25.314Z,76.92
2024-04-08T05:14:25.270Z,76.17
2024-04-08T05:15:25.262Z,76.28
2024-04-08T05:16:25.230Z,75.80
2024-04-08T05:17:25.238Z,74.81
2024-04-08T05:18:25.208Z,75.88
2024-04-08T05:19:26.091Z,74.99
2024-04-08T05:20:25.214Z,75.30
2024-04-08T05:21:25.188Z,75.02
2024-04-08T05:22:25.154Z,75.88
2024-04-08T05:23:25.165Z,76.31
2024-04-08T05:24:25.175Z,76.00
2024-04-08T05:25:25.158Z,74.67
2024-04-08T05:26:25.201Z,73.96
2024-04-08T05:27:25.108Z,78.21
2024-04-08T05:28:25.101Z,76.41
2024-04-08T05:29:25.100Z,75.20
2024-04-08T05:30:25.088Z,74.00
2024-04-08T05:31:25.166Z,74.81
2024-04-08T05:32:25.050Z,74.54
2024-04-08T05:33:25.049Z,76.77
2024-04-08T05:34:25.021Z,75.06
2024-04-08T05:35:25.041Z,75.07
2024-04-08T05:36:24.985Z,75.68
2024-04-08T05:37:25.600Z,75.79
2024-04-08T05:38:24.975Z,75.54
2024-04-08T05:39:25.619Z,76.15
2024-04-08T05:40:24.966Z,77.37
2024-04-08T05:41:24.934Z,77.78
2024-04-08T05:42:24.935Z,75.39
2024-04-08T05:43:24.916Z,75.38
2024-04-08T05:44:25.063Z,74.56
2024-04-08T05:45:25.178Z,74.55
2024-04-08T05:46:24.877Z,75.03
2024-04-08T05:47:25.615Z,74.57
2024-04-08T05:48:24.867Z,75.16
2024-04-08T05:49:25.084Z,77.04
2024-04-08T05:50:24.843Z,76.39
2024-04-08T05:51:24.902Z,76.42
2024-04-08T05:52:24.817Z,77.27
2024-04-08T05:53:24.805Z,76.13
2024-04-08T05:54:24.815Z,76.04
2024-04-08T05:55:24.777Z,74.46
2024-04-08T05:56:25.211Z,75.44
2024-04-08T05:57:24.762Z,76.57
2024-04-08T05:58:24.761Z,75.69
2024-04-08T05:59:24.731Z,74.43
2024-04-08T06:00:25.657Z,76.47
2024-04-08T06:01:24.903Z,75.78
2024-04-08T06:02:24.740Z,74.87
2024-04-08T06:03:24.830Z,75.37
2024-04-08T06:04:24.676Z,75.00
2024-04-08T06:05:24.669Z,75.38
2024-04-08T06:06:24.673Z,75.97
2024-04-08T06:07:24.639Z,74.50
2024-04-08T06:08:24.737Z,75.00
2024-04-08T06:09:24.640Z,73.34
2024-04-08T06:10:24.733Z,73.10
2024-04-08T06:11:24.614Z,76.50
2024-04-08T06:12:24.657Z,74.60
2024-04-08T06:13:24.697Z,74.42
2024-04-08T06:14:24.563Z,75.64
2024-04-08T06:15:24.591Z,73.11
2024-04-08T06:16:24.541Z,72.74
2024-04-08T06:17:24.554Z,72.82
2024-04-08T06:18:24.573Z,75.09
2024-04-08T06:19:24.522Z,73.78
2024-04-08T06:20:24.714Z,74.28
2024-04-08T06:21:24.510Z,74.54
2024-04-08T06:22:24.498Z,74.08
2024-04-08T06:23:24.492Z,73.04
2024-04-08T06:24:24.459Z,73.47
2024-04-08T06:25:24.446Z,72.89
2024-04-08T06:26:24.465Z,72.10
2024-04-08T06:27:24.439Z,72.34
2024-04-08T06:28:24.432Z,72.72
2024-04-08T06:29:24.423Z,73.36
2024-04-08T06:30:24.418Z,73.65
2024-04-08T06:31:24.396Z,72.05
2024-04-08T06:32:24.414Z,73.80
2024-04-08T06:33:25.651Z,73.87
2024-04-08T06:34:24.452Z,73.81
2024-04-08T06:35:25.171Z,74.11
2024-04-08T06:36:24.310Z,75.61
2024-04-08T06:37:24.320Z,71.10
2024-04-08T06:38:24.303Z,72.95
2024-04-08T06:39:24.299Z,73.47
2024-04-08T06:40:24.285Z,72.56
2024-04-08T06:41:24.278Z,72.66
2024-04-08T06:42:24.272Z,73.25
2024-04-08T06:43:24.259Z,73.02
2024-04-08T06:44:25.594Z,73.72
2024-04-08T06:45:24.232Z,74.00
2024-04-08T06:46:24.218Z,71.28
2024-04-08T06:47:24.241Z,72.54
2024-04-08T06:48:24.233Z,74.72
2024-04-08T06:49:24.232Z,73.48
2024-04-08T06:50:24.177Z,72.28
2024-04-08T06:51:24.170Z,72.95
2024-04-08T06:52:24.153Z,71.76
2024-04-08T06:53:24.162Z,71.94
2024-04-08T06:54:24.143Z,72.14
2024-04-08T06:55:24.161Z,70.84
2024-04-08T06:56:24.114Z,72.06
2024-04-08T06:57:24.093Z,71.46
2024-04-08T06:58:24.085Z,73.06
2024-04-08T06:59:24.077Z,72.82
2024-04-08T07:00:24.075Z,71.75
2024-04-08T07:01:24.060Z,73.65
2024-04-08T07:02:24.060Z,72.59
2024-04-08T07:03:24.033Z,71.05
2024-04-08T07:04:24.023Z,70.79
2024-04-08T07:05:24.040Z,71.55
2024-04-08T07:06:24.047Z,73.34
2024-04-08T07:07:23.988Z,71.12
2024-04-08T07:08:23.972Z,72.71
2024-04-08T07:09:23.963Z,72.39
2024-04-08T07:10:23.954Z,71.23
2024-04-08T07:11:23.938Z,73.11
2024-04-08T07:12:23.933Z,69.99
2024-04-08T07:13:23.919Z,71.17
2024-04-08T07:14:23.904Z,71.18
2024-04-08T07:15:23.900Z,73.14
2024-04-08T07:16:23.892Z,69.10
2024-04-08T07:17:23.903Z,70.75
2024-04-08T07:18:23.929Z,71.41
2024-04-08T07:19:23.852Z,71.38
2024-04-08T07:20:23.854Z,71.86
2024-04-08T07:21:23.860Z,70.22
2024-04-08T07:22:24.009Z,72.40
2024-04-08T07:23:23.832Z,73.11
2024-04-08T07:24:23.842Z,72.40
2024-04-08T07:25:23.808Z,72.60
2024-04-08T07:26:23.785Z,70.95
2024-04-08T07:27:23.881Z,73.63
2024-04-08T07:28:23.778Z,73.29
2024-04-08T07:29:23.760Z,73.83
2024-04-08T07:30:23.742Z,72.89
2024-04-08T07:31:23.773Z,70.85
2024-04-08T07:32:23.724Z,72.21
2024-04-08T07:33:23.754Z,71.65
2024-04-08T07:34:23.694Z,72.74
2024-04-08T07:35:26.389Z,69.42
2024-04-08T07:36:24.700Z,71.41
2024-04-08T07:37:23.674Z,73.19
2024-04-08T07:38:23.662Z,73.88
2024-04-08T07:39:27.310Z,74.10
2024-04-08T07:40:25.655Z,71.88
2024-04-08T07:41:24.177Z,74.47
2024-04-08T07:42:23.685Z,70.56
2024-04-08T07:43:23.609Z,72.92
2024-04-08T07:44:23.593Z,73.20
2024-04-08T07:45:23.592Z,72.64
2024-04-08T07:46:23.595Z,71.57
2024-04-08T07:47:23.603Z,69.39
2024-04-08T07:48:23.590Z,70.77
2024-04-08T07:49:23.552Z,70.67
2024-04-08T07:50:23.542Z,71.62
2024-04-08T07:51:23.612Z,72.46
2024-04-08T07:52:23.567Z,69.84
2024-04-08T07:53:23.536Z,73.07
2024-04-08T07:54:23.497Z,71.95
2024-04-08T07:55:23.494Z,72.14
2024-04-08T07:56:23.502Z,71.89
2024-04-08T07:57:23.491Z,70.26
2024-04-08T07:58:23.447Z,71.57
2024-04-08T07:59:23.443Z,73.57
2024-04-08T08:00:23.456Z,71.75
2024-04-08T08:01:24.171Z,72.17
2024-04-08T08:02:23.431Z,72.72
2024-04-08T08:03:23.408Z,71.75
2024-04-08T08:04:23.406Z,72.69
2024-04-08T08:05:23.376Z,71.46
2024-04-08T08:06:23.425Z,68.93
2024-04-08T08:07:23.391Z,71.43
2024-04-08T08:08:23.372Z,71.49
2024-04-08T08:09:23.339Z,66.32
2024-04-08T08:10:23.346Z,69.62
2024-04-08T08:11:23.361Z,69.85
2024-04-08T08:12:23.343Z,70.49
2024-04-08T08:13:23.310Z,68.72
2024-04-08T08:14:23.321Z,70.37
2024-04-08T08:15:23.295Z,70.49
2024-04-08T08:16:23.284Z,72.51
2024-04-08T08:17:23.303Z,71.50
2024-04-08T08:18:23.451Z,70.65
2024-04-08T08:19:23.246Z,70.88
2024-04-08T08:20:23.243Z,73.15
2024-04-08T08:21:23.245Z,71.26
2024-04-08T08:22:23.260Z,72.77
2024-04-08T08:23:23.216Z,71.82
2024-04-08T08:24:23.189Z,71.27
2024-04-08T08:25:23.192Z,71.75
2024-04-08T08:26:23.249Z,72.42
2024-04-08T08:27:23.222Z,73.14
2024-04-08T08:28:23.173Z,72.24
2024-04-08T08:29:23.188Z,72.99
2024-04-08T08:30:23.172Z,73.04
2024-04-08T08:31:23.768Z,74.58
2024-04-08T08:32:23.134Z,72.22
2024-04-08T08:33:23.122Z,71.95
2024-04-08T08:34:23.141Z,68.68
2024-04-08T08:35:23.088Z,68.21
2024-04-08T08:36:23.069Z,73.14
2024-04-08T08:37:23.093Z,73.50
2024-04-08T08:38:23.073Z,70.48
2024-04-08T08:39:23.043Z,69.42
2024-04-08T08:40:23.062Z,71.72
2024-04-08T08:41:23.026Z,71.79
2024-04-08T08:42:23.034Z,72.85
2024-04-08T08:43:23.026Z,72.19
2024-04-08T08:44:22.994Z,72.55
2024-04-08T08:45:22.979Z,72.72
2024-04-08T08:46:22.996Z,73.30
2024-04-08T08:47:23.054Z,72.35
2024-04-08T08:48:23.157Z,73.21
2024-04-08T08:49:23.019Z,71.42
2024-04-08T08:50:22.935Z,74.08
2024-04-08T08:51:22.934Z,72.59
2024-04-08T08:52:22.943Z,71.40
2024-04-08T08:53:22.981Z,72.21
2024-04-08T08:54:22.910Z,72.65
2024-04-08T08:55:22.899Z,73.56
2024-04-08T08:56:22.894Z,70.40
2024-04-08T08:57:22.937Z,74.19
2024-04-08T08:58:22.934Z,75.08
2024-04-08T08:59:22.889Z,73.19
2024-04-08T09:00:22.836Z,71.51
2024-04-08T09:01:22.837Z,74.54
2024-04-08T09:02:22.830Z,68.82
2024-04-08T09:03:22.846Z,72.12
2024-04-08T09:04:22.818Z,73.40
2024-04-08T09:05:22.811Z,71.31
2024-04-08T09:06:22.806Z,73.28
2024-04-08T09:07:22.776Z,72.64
2024-04-08T09:08:22.802Z,72.22
2024-04-08T09:09:22.787Z,73.86
2024-04-08T09:10:23.748Z,72.02
2024-04-08T09:11:22.798Z,75.56
2024-04-08T09:12:22.731Z,75.70
2024-04-08T09:13:22.741Z,77.33
2024-04-08T09:14:22.718Z,74.09
2024-04-08T09:15:22.724Z,75.81
2024-04-08T09:16:22.684Z,74.44
2024-04-08T09:17:22.677Z,74.78
2024-04-08T09:18:23.053Z,74.17
2024-04-08T09:19:22.688Z,71.28
2024-04-08T09:20:22.666Z,73.66
2024-04-08T09:21:22.643Z,79.94
2024-04-08T09:22:22.649Z,83.50
2024-04-08T09:23:22.628Z,80.74
2024-04-08T09:24:22.612Z,71.90
2024-04-08T09:25:22.592Z,73.56
2024-04-08T09:26:22.584Z,71.73
2024-04-08T09:27:23.660Z,71.81
2024-04-08T09:28:22.606Z,72.10
2024-04-08T09:29:22.584Z,72.88
2024-04-08T09:30:22.741Z,73.18
2024-04-08T09:31:22.527Z,71.89
2024-04-08T09:32:22.545Z,70.14
2024-04-08T09:33:22.702Z,72.27
2024-04-08T09:34:22.519Z,72.75
2024-04-08T09:35:22.559Z,73.19
2024-04-08T09:36:22.493Z,73.63
2024-04-08T09:37:22.494Z,72.00
2024-04-08T09:38:22.481Z,73.54
2024-04-08T09:39:22.484Z,72.35
2024-04-08T09:40:22.487Z,72.05
2024-04-08T09:41:22.570Z,71.90
2024-04-08T09:42:22.439Z,72.56
2024-04-08T09:43:22.501Z,73.16
2024-04-08T09:44:22.517Z,72.87
2024-04-08T09:45:22.635Z,73.30
2024-04-08T09:46:22.397Z,70.43
2024-04-08T09:47:22.529Z,73.79
2024-04-08T09:48:22.623Z,70.61
2024-04-08T09:49:24.647Z,70.50
2024-04-08T09:50:22.375Z,72.82
2024-04-08T09:51:22.337Z,71.37
2024-04-08T09:52:22.340Z,73.05
2024-04-08T09:53:22.376Z,70.61
2024-04-08T09:54:22.318Z,71.91
2024-04-08T09:55:22.297Z,70.00
2024-04-08T09:56:22.295Z,74.11
2024-04-08T09:57:22.284Z,70.05
2024-04-08T09:58:22.319Z,72.68
2024-04-08T09:59:22.306Z,73.59
2024-04-08T10:00:22.372Z,71.74
2024-04-08T10:01:22.231Z,72.24
2024-04-08T10:02:22.243Z,72.57
2024-04-08T10:03:22.215Z,70.01
2024-04-08T10:04:22.252Z,71.99
2024-04-08T10:05:22.253Z,73.79
2024-04-08T10:06:22.206Z,70.14
2024-04-08T10:07:22.217Z,72.03
2024-04-08T10:08:22.776Z,73.79
2024-04-08T10:09:22.212Z,71.66
2024-04-08T10:10:22.171Z,72.82
2024-04-08T10:11:22.268Z,73.70
2024-04-08T10:12:22.228Z,72.01
2024-04-08T10:13:22.118Z,73.03
2024-04-08T10:14:22.861Z,71.84
2024-04-08T10:15:22.169Z,72.12
2024-04-08T10:16:22.100Z,71.15
2024-04-08T10:17:22.164Z,72.13
2024-04-08T10:18:22.155Z,73.02
2024-04-08T10:19:22.141Z,71.52
2024-04-08T10:20:22.080Z,72.22
2024-04-08T10:21:22.043Z,73.41
2024-04-08T10:22:22.046Z,72.99
2024-04-08T10:23:22.046Z,72.96
2024-04-08T10:24:22.383Z,73.16
2024-04-08T10:25:23.921Z,72.09
2024-04-08T10:26:23.036Z,73.11
2024-04-08T10:27:22.028Z,73.42
2024-04-08T10:28:22.019Z,73.27
2024-04-08T10:29:21.983Z,71.38
2024-04-08T10:30:21.983Z,71.79
2024-04-08T10:31:21.967Z,70.75
2024-04-08T10:32:21.970Z,71.94
2024-04-08T10:33:21.997Z,72.07
2024-04-08T10:34:21.934Z,72.84
2024-04-08T10:35:21.905Z,74.39
2024-04-08T10:36:21.930Z,71.93
2024-04-08T10:37:23.672Z,73.42
2024-04-08T10:38:21.881Z,71.03
2024-04-08T10:39:22.060Z,72.34
2024-04-08T10:40:21.860Z,71.50
2024-04-08T10:41:21.880Z,73.33
2024-04-08T10:42:21.892Z,74.63
2024-04-08T10:43:21.828Z,72.23
2024-04-08T10:44:21.806Z,70.62
2024-04-08T10:45:21.821Z,70.22
2024-04-08T10:46:21.815Z,69.56
2024-04-08T10:47:21.856Z,72.75
2024-04-08T10:48:22.090Z,71.12
2024-04-08T10:49:21.798Z,73.68
2024-04-08T10:50:21.765Z,71.20
2024-04-08T10:51:22.718Z,70.37
2024-04-08T10:52:21.750Z,70.15
2024-04-08T10:53:21.756Z,73.34
2024-04-08T10:54:21.712Z,72.72
2024-04-08T10:55:21.747Z,72.67
2024-04-08T10:56:21.752Z,70.90
2024-04-08T10:57:21.707Z,72.38
2024-04-08T10:58:21.697Z,71.07
2024-04-08T10:59:21.697Z,72.64
2024-04-08T11:00:21.712Z,69.76
2024-04-08T11:01:21.697Z,71.89
2024-04-08T11:02:21.711Z,72.64
2024-04-08T11:03:21.644Z,70.16
2024-04-08T11:04:22.648Z,71.88
2024-04-08T11:05:21.620Z,73.32
2024-04-08T11:06:23.180Z,70.91
2024-04-08T11:07:21.639Z,73.28
2024-04-08T11:08:21.605Z,73.30
2024-04-08T11:09:21.620Z,70.99
2024-04-08T11:10:21.568Z,73.53
2024-04-08T11:11:21.742Z,72.23
2024-04-08T11:12:21.833Z,73.19
2024-04-08T11:13:21.652Z,72.56
2024-04-08T11:14:21.550Z,72.10
2024-04-08T11:15:21.610Z,71.10
2024-04-08T11:16:21.520Z,71.22
2024-04-08T11:17:21.484Z,72.58
2024-04-08T11:18:22.168Z,71.11
2024-04-08T11:19:21.489Z,70.49
2024-04-08T11:20:21.474Z,71.09
2024-04-08T11:21:21.517Z,73.30
2024-04-08T11:22:21.616Z,71.41
2024-04-08T11:23:22.077Z,72.42
2024-04-08T11:24:21.470Z,72.63
2024-04-08T11:25:21.417Z,73.31
2024-04-08T11:26:21.437Z,73.22
2024-04-08T11:27:21.473Z,74.11
2024-04-08T11:28:21.430Z,72.02
2024-04-08T11:29:21.379Z,71.83
2024-04-08T11:30:21.503Z,70.50
2024-04-08T11:31:21.370Z,72.66
2024-04-08T11:32:21.359Z,71.25
2024-04-08T11:33:21.503Z,70.39
2024-04-08T11:34:21.344Z,70.24
2024-04-08T11:35:21.336Z,71.23
2024-04-08T11:36:21.391Z,69.65
2024-04-08T11:37:21.295Z,70.28
2024-04-08T11:38:30.539Z,71.60
2024-04-08T11:39:23.360Z,70.72
2024-04-08T11:40:21.271Z,73.27
2024-04-08T11:41:22.300Z,72.23
2024-04-08T11:42:21.613Z,72.26
2024-04-08T11:43:21.331Z,73.05
2024-04-08T11:44:21.290Z,72.70
2024-04-08T11:45:21.432Z,70.93
2024-04-08T11:46:21.339Z,75.59
2024-04-08T11:47:21.261Z,75.03
2024-04-08T11:48:21.433Z,72.43
2024-04-08T11:49:21.221Z,69.38
2024-04-08T11:50:21.207Z,73.14
2024-04-08T11:51:21.257Z,74.64
2024-04-08T11:52:21.170Z,72.98
2024-04-08T11:53:21.148Z,73.76
2024-04-08T11:54:21.157Z,72.57
2024-04-08T11:55:21.292Z,72.55
2024-04-08T11:56:21.123Z,75.05
2024-04-08T11:57:21.157Z,71.51
2024-04-08T11:58:21.098Z,72.63
2024-04-08T11:59:21.106Z,72.55
2024-04-08T12:00:21.505Z,72.52
2024-04-08T12:01:22.084Z,72.76
2024-04-08T12:02:21.095Z,71.18
2024-04-08T12:03:21.080Z,73.27
2024-04-08T12:04:21.069Z,73.83
2024-04-08T12:05:21.054Z,74.15
2024-04-08T12:06:21.105Z,73.49
2024-04-08T12:07:21.004Z,70.61
2024-04-08T12:08:21.030Z,71.78
2024-04-08T12:09:21.061Z,73.09
2024-04-08T12:10:21.034Z,70.55
2024-04-08T12:11:21.019Z,71.59
2024-04-08T12:12:21.043Z,74.71
2024-04-08T12:13:20.959Z,73.20
2024-04-08T12:14:20.971Z,71.86
2024-04-08T12:15:21.011Z,71.72
2024-04-08T12:16:20.928Z,72.15
2024-04-08T12:17:20.911Z,70.41
2024-04-08T12:18:21.988Z,73.49
2024-04-08T12:19:21.257Z,71.88
2024-04-08T12:20:20.885Z,74.12
2024-04-08T12:21:20.905Z,73.56
2024-04-08T12:22:20.867Z,72.58
2024-04-08T12:23:20.845Z,71.07
2024-04-08T12:24:20.913Z,73.51
2024-04-08T12:25:20.825Z,71.51
2024-04-08T12:26:20.792Z,72.70
2024-04-08T12:27:20.817Z,74.18
2024-04-08T12:28:20.787Z,71.77
2024-04-08T12:29:20.831Z,72.75
2024-04-08T12:30:20.889Z,73.51
2024-04-08T12:31:20.743Z,72.38
2024-04-08T12:32:20.787Z,72.87
2024-04-08T12:33:20.864Z,72.73
2024-04-08T12:34:20.715Z,72.45
2024-04-08T12:35:20.721Z,72.58
2024-04-08T12:36:20.761Z,74.49
2024-04-08T12:37:20.699Z,74.31
2024-04-08T12:38:20.673Z,74.02
2024-04-08T12:39:20.726Z,74.22
2024-04-08T12:40:20.663Z,74.84
2024-04-08T12:41:20.638Z,75.08
2024-04-08T12:42:20.741Z,75.26
2024-04-08T12:43:20.618Z,74.92
2024-04-08T12:44:20.660Z,76.28
2024-04-08T12:45:20.667Z,74.90
2024-04-08T12:46:20.619Z,75.74
2024-04-08T12:47:20.604Z,75.28
2024-04-08T12:48:20.724Z,78.04
2024-04-08T12:49:20.632Z,74.07
2024-04-08T12:50:20.595Z,76.92
2024-04-08T12:51:20.737Z,74.41
2024-04-08T12:52:20.566Z,76.43